Data for 04/23/2009

Time Sea-Level Adjusted Pressure Absolute Pressure Temperature Relative Humidity Dew Point   
(mb) (inHg) (mb) (inHg) (C) (F) (%) (C) (F)
00:05 1008 29.77 837 24.72 12.5 54.4 30 -4.4 24.1
00:10 1007 29.74 837 24.72 12.7 54.9 30 -4.5 23.9
00:15 1007 29.74 837 24.72 12.8 55 31 -4 24.7
00:20 1007 29.74 837 24.72 12.8 55 31 -4.1 24.6
00:25 1007 29.74 837 24.72 12.5 54.6 31 -4 24.8
00:30 1007 29.74 837 24.72 12.4 54.3 31 -4.3 24.2
00:35 1007 29.74 837 24.72 13.1 55.6 26 -5.8 21.6
00:40 1007 29.74 836 24.69 13.8 56.9 25 -5.6 21.9
00:45 1007 29.74 836 24.69 14.1 57.3 25 -5.6 22
00:50 1007 29.74 836 24.69 14 57.1 25 -5.5 22
00:55 1007 29.74 836 24.69 13.8 56.8 26 -5.4 22.3
01:00 1007 29.74 836 24.69 13.5 56.3 26 -5.8 21.6
01:05 1007 29.74 836 24.69 14 57.2 24 -6.4 20.5
01:10 1007 29.74 836 24.69 14.4 57.9 23 -6.2 20.9
01:15 1007 29.74 836 24.69 14.6 58.3 24 -5.8 21.5
01:20 1007 29.74 836 24.69 14.5 58 24 -5.7 21.7
01:25 1007 29.74 836 24.69 14.2 57.6 25 -5.3 22.5
01:30 1007 29.74 836 24.69 13.6 56.6 28 -4.4 24.1
01:35 1007 29.74 836 24.69 13 55.5 26 -5.9 21.5
01:40 1007 29.74 836 24.69 12.6 54.6 33 -3.3 26
01:45 1007 29.74 836 24.69 11.6 52.8 30 -5.2 22.6
01:50 1006 29.71 836 24.69 11.8 53.2 32 -4.2 24.4
01:55 1006 29.71 836 24.69 11.8 53.2 30 -5.2 22.6
02:00 1006 29.71 835 24.66 11.6 52.9 32 -4.5 23.9
02:05 1006 29.71 835 24.66 11.3 52.4 30 -5.5 22.1
02:10 1006 29.71 835 24.66 11.6 52.8 31 -4.9 23.2
02:15 1006 29.71 835 24.66 11.3 52.3 33 -4.4 24.1
02:20 1006 29.71 835 24.66 10.7 51.3 32 -5.1 22.8
02:25 1006 29.71 835 24.66 10.6 51.1 36 -3.9 25
02:30 1006 29.71 835 24.66 10.2 50.3 34 -5 23.1
02:35 1006 29.71 835 24.66 10.4 50.7 36 -3.9 24.9
02:40 1006 29.71 835 24.66 10.4 50.6 35 -4.5 23.9
02:45 1006 29.71 835 24.66 10.3 50.5 37 -3.8 25.1
02:50 1006 29.71 835 24.66 10.3 50.5 35 -4.4 24
02:55 1006 29.71 835 24.66 10.4 50.8 37 -3.7 25.3
03:00 1006 29.71 835 24.66 10.8 51.4 31 -5.7 21.7
03:05 1006 29.71 835 24.66 11.3 52.4 31 -5.1 22.8
03:10 1005 29.68 835 24.66 11.3 52.3 32 -4.9 23.3
03:15 1005 29.68 835 24.66 11.3 52.4 31 -5.3 22.5
03:20 1005 29.68 834 24.63 11.2 52.1 33 -4.6 23.7
03:25 1005 29.68 834 24.63 11.3 52.3 30 -5.7 21.7
03:30 1005 29.68 834 24.63 11.8 53.2 30 -5.4 22.3
03:35 1005 29.68 834 24.63 12.2 53.9 29 -5.2 22.6
03:40 1005 29.68 834 24.63 11.9 53.4 32 -4.4 24
03:45 1005 29.68 834 24.63 11.5 52.7 33 -4.3 24.2
03:50 1005 29.68 834 24.63 11.5 52.7 32 -4.6 23.7
03:55 1005 29.68 834 24.63 12.2 54 31 -4.4 24.1
04:00 1005 29.68 834 24.63 13.1 55.5 31 -3.6 25.5
04:05 1005 29.68 834 24.63 13 55.3 32 -3.4 25.9
04:10 1005 29.68 834 24.63 12.8 55.1 33 -3.2 26.2
04:15 1005 29.68 834 24.63 12.6 54.7 33 -3.2 26.3
04:20 1006 29.71 835 24.66 12.7 54.9 32 -3.6 25.5
04:25 1006 29.71 835 24.66 12.7 54.8 34 -2.8 27
04:30 1006 29.71 835 24.66 11.8 53.3 36 -2.8 27
04:35 1006 29.71 835 24.66 11.3 52.3 38 -2.6 27.3
04:40 1006 29.71 835 24.66 10.6 51.1 40 -2.3 27.9
04:45 1006 29.71 835 24.66 10 50.1 42 -2.3 27.9
04:50 1006 29.71 835 24.66 9.7 49.4 43 -2.3 27.9
04:55 1006 29.71 835 24.66 9.3 48.7 44 -2.2 28
05:00 1006 29.71 835 24.66 9.2 48.6 46 -1.8 28.8
05:05 1006 29.71 835 24.66 9.1 48.3 43 -2.9 26.8
05:10 1006 29.71 836 24.69 9.6 49.3 40 -3.4 25.9
05:15 1006 29.71 836 24.69 10.1 50.1 37 -4.1 24.6
05:20 1006 29.71 836 24.69 11.3 52.3 30 -5.6 21.9
05:25 1006 29.71 835 24.66 12.2 54 31 -4.4 24
05:30 1006 29.71 836 24.69 11.7 53 31 -4.7 23.5
05:35 1006 29.71 836 24.69 11.7 53 32 -4.4 24.1
05:40 1006 29.71 836 24.69 11.3 52.4 34 -3.9 25
05:45 1007 29.74 836 24.69 10.9 51.6 33 -4.5 23.9
05:50 1007 29.74 836 24.69 11 51.9 35 -3.7 25.4
05:55 1007 29.74 836 24.69 10.8 51.5 36 -3.7 25.3
06:00 1007 29.74 836 24.69 10.9 51.6 34 -4.4 24
06:05 1007 29.74 836 24.69 11.3 52.3 37 -2.8 27
06:10 1007 29.74 837 24.72 11.1 52 34 -4.3 24.3
06:15 1007 29.74 837 24.72 12.1 53.7 31 -4.5 23.9
06:20 1007 29.74 836 24.69 12.3 54.1 33 -3.5 25.7
06:25 1007 29.74 836 24.69 12.2 53.9 33 -3.5 25.7
06:30 1007 29.74 836 24.69 12.1 53.7 33 -3.6 25.6
06:35 1007 29.74 836 24.69 11.8 53.2 35 -3 26.5
06:40 1007 29.74 836 24.69 11.2 52.1 37 -3.1 26.4
06:45 1007 29.74 836 24.69 10.9 51.6 41 -1.9 28.5
06:50 1007 29.74 836 24.69 11.1 51.9 38 -2.7 27.2
06:55 1007 29.74 836 24.69 11 51.8 45 -0.3 31.4
07:00 1007 29.74 836 24.69 10.7 51.2 52 1.4 34.5
07:05 1007 29.74 836 24.69 10.1 50.2 56 1.8 35.3
07:10 1007 29.74 836 24.69 9.9 49.9 56 1.7 35
07:15 1007 29.74 836 24.69 10.1 50.1 58 2.2 35.9
07:20 1006 29.71 836 24.69 10.2 50.4 58 2.4 36.4
07:25 1006 29.71 835 24.66 10.4 50.6 60 2.9 37.2
07:30 1006 29.71 835 24.66 10.6 51.1 60 3.3 37.9
07:35 1006 29.71 835 24.66 10.8 51.4 61 3.5 38.3
07:40 1006 29.71 835 24.66 11 51.7 60 3.5 38.4
07:45 1006 29.71 835 24.66 11.1 51.9 60 3.6 38.4
07:50 1006 29.71 835 24.66 11.1 52 62 4.1 39.3
07:55 1006 29.71 835 24.66 11 51.9 58 3.2 37.7
08:00 1006 29.71 835 24.66 12 53.5 47 1 33.7
08:05 1006 29.71 835 24.66 12.3 54.2 56 3.9 39
08:10 1006 29.71 835 24.66 11.5 52.7 56 3 37.4
08:15 1006 29.71 836 24.69 11.7 53 54 2.7 36.8
08:20 1006 29.71 835 24.66 11.8 53.2 54 2.8 37.1
08:25 1006 29.71 835 24.66 11.7 53.1 57 3.7 38.6
08:30 1006 29.71 835 24.66 11.1 52 62 4 39.2
08:35 1006 29.71 835 24.66 11.1 51.9 58 3.1 37.6
08:40 1006 29.71 835 24.66 11.4 52.4 57 3.2 37.8
08:45 1006 29.71 835 24.66 11.6 52.9 56 3.3 37.9
08:50 1006 29.71 835 24.66 11.5 52.7 62 4.5 40.1
08:55 1006 29.71 835 24.66 11.2 52.2 64 4.7 40.5
09:00 1006 29.71 835 24.66 11.2 52.2 60 3.9 39
09:05 1006 29.71 835 24.66 11.5 52.6 60 4.1 39.4
09:10 1006 29.71 835 24.66 11.7 53 57 3.4 38.1
09:15 1006 29.71 835 24.66 11.9 53.5 56 3.6 38.5
09:20 1006 29.71 835 24.66 12.3 54.1 54 3.2 37.7
09:25 1006 29.71 835 24.66 12.3 54.1 49 1.9 35.4
09:30 1006 29.71 835 24.66 12.4 54.2 49 2 35.6
09:35 1006 29.71 835 24.66 12.4 54.3 53 3.1 37.7
09:40 1006 29.71 835 24.66 12.4 54.4 53 3.3 37.9
09:45 1005 29.68 835 24.66 12.7 54.9 50 2.7 36.9
09:50 1005 29.68 834 24.63 13.1 55.6 46 1.7 35.1
09:55 1005 29.68 834 24.63 13.3 55.9 47 2.3 36.2
10:00 1005 29.68 835 24.66 13.5 56.2 46 2.3 36.1
10:05 1005 29.68 835 24.66 13.7 56.6 45 2.1 35.7
10:10 1005 29.68 835 24.66 13.5 56.4 43 1.2 34.1
10:15 1005 29.68 834 24.63 12.7 54.8 47 1.6 34.9
10:20 1005 29.68 835 24.66 12.3 54.2 47 1.4 34.5
10:25 1005 29.68 835 24.66 12.3 54.1 47 1.3 34.3
10:30 1006 29.71 835 24.66 11.9 53.5 48 1.4 34.5
10:35 1006 29.71 835 24.66 12.2 54 48 1.5 34.7
10:40 1005 29.68 835 24.66 12.3 54.1 48 1.6 34.8
10:45 1006 29.71 835 24.66 12 53.6 50 1.9 35.4
10:50 1006 29.71 835 24.66 12 53.5 50 2 35.6
10:55 1006 29.71 835 24.66 12 53.5 50 2 35.7
11:00 1006 29.71 835 24.66 11.8 53.2 50 1.8 35.2
11:05 1006 29.71 835 24.66 11.3 52.4 51 1.6 34.9
11:10 1006 29.71 835 24.66 11.1 52 50 1.2 34.1
11:15 1006 29.71 835 24.66 11 51.7 50 0.9 33.6
11:20 1005 29.68 835 24.66 11 51.8 51 1.3 34.3
11:25 1006 29.71 835 24.66 10.8 51.5 50 1 33.7
11:30 1006 29.71 835 24.66 10.8 51.4 52 1.4 34.5
11:35 1006 29.71 835 24.66 10.6 51 54 1.7 35
11:40 1006 29.71 835 24.66 10.2 50.3 57 2 35.6
11:45 1006 29.71 835 24.66 10 50 60 2.5 36.6
11:50 1006 29.71 835 24.66 10.2 50.4 57 2.1 35.8
11:55 1006 29.71 835 24.66 9.9 49.8 59 2.3 36.2
12:00 1006 29.71 835 24.66 9.5 49.1 60 2.3 36.1
12:05 1006 29.71 835 24.66 9.2 48.6 63 2.6 36.7
12:10 1006 29.71 836 24.69 9.4 48.9 62 2.5 36.4
12:15 1006 29.71 835 24.66 9.5 49.2 62 2.7 36.8
12:20 1006 29.71 835 24.66 9.7 49.5 61 2.6 36.7
12:25 1006 29.71 835 24.66 10 50 60 2.6 36.8
12:30 1006 29.71 835 24.66 10.3 50.6 59 2.6 36.7
12:35 1006 29.71 835 24.66 10.4 50.7 57 2.3 36.2
12:40 1006 29.71 835 24.66 9.1 48.5 62 2.3 36.1
12:45 1006 29.71 835 24.66 8.9 47.9 59 1.4 34.5
12:50 1006 29.71 835 24.66 8.6 47.5 59 1 33.8
12:55 1007 29.74 836 24.69 8.1 46.6 61 1 33.8
13:00 1007 29.74 836 24.69 7.6 45.7 64 1.2 34.1
13:05 1007 29.74 836 24.69 7.6 45.6 61 0.6 33.1
13:10 1007 29.74 836 24.69 7.6 45.6 62 0.7 33.2
13:15 1007 29.74 836 24.69 7.6 45.7 61 0.6 33.1
13:20 1007 29.74 836 24.69 7.6 45.7 63 1 33.9
13:25 1007 29.74 836 24.69 7.6 45.7 67 1.8 35.3
13:30 1007 29.74 836 24.69 7.1 44.8 73 2.6 36.6
13:35 1007 29.74 836 24.69 6.5 43.8 70 1.6 34.8
13:40 1007 29.74 836 24.69 6.2 43.2 74 2 35.5
13:45 1007 29.74 836 24.69 6.1 42.9 75 2 35.6
13:50 1007 29.74 836 24.69 6.3 43.3 75 2.1 35.8
13:55 1007 29.74 837 24.72 6.1 42.9 77 2.4 36.3
14:00 1008 29.77 837 24.72 5.7 42.2 78 2.2 36
14:05 1008 29.77 837 24.72 5.4 41.7 81 2.4 36.3
14:10 1008 29.77 837 24.72 5.2 41.3 83 2.6 36.6
14:15 1008 29.77 837 24.72 5 41 83 2.4 36.3
14:20 1008 29.77 837 24.72 4.7 40.5 84 2.3 36.1
14:25 1008 29.77 837 24.72 4.7 40.5 85 2.4 36.3
14:30 1008 29.77 837 24.72 4.5 40 85 2.1 35.9
14:35 1008 29.77 838 24.75 4.2 39.6 87 2.2 35.9
14:40 1009 29.8 838 24.75 3.7 38.7 84 1.2 34.1
14:45 1009 29.8 838 24.75 2.4 36.3 88 0.5 33
14:50 1009 29.8 838 24.75 1.6 34.8 90 0.1 32.2
14:55 1009 29.8 838 24.75 1.4 34.4 91 0.1 32.2
15:00 1009 29.8 838 24.75 1.1 33.9 93 0 32.1
15:05 1009 29.8 838 24.75 0.8 33.4 94 -0 31.9
15:10 1009 29.8 838 24.75 0.9 33.5 94 -0 32
15:15 1009 29.8 838 24.75 0.7 33.2 94 -0.2 31.7
15:20 1009 29.8 838 24.75 0.4 32.7 95 -0.3 31.5
15:25 1009 29.8 838 24.75 0.2 32.4 96 -0.4 31.3
15:30 1009 29.8 838 24.75 0.1 32.3 96 -0.4 31.2
15:35 1009 29.8 839 24.78 0.1 32.1 96 -0.5 31.2
15:40 1009 29.8 839 24.78 -0.1 31.9 97 -0.5 31
15:45 1010 29.83 839 24.78 -0.2 31.7 97 -0.6 30.9
15:50 1010 29.83 839 24.78 -0.2 31.6 97 -0.6 30.8
15:55 1010 29.83 839 24.78 -0.3 31.4 97 -0.8 30.5
16:00 1010 29.83 839 24.78 -0.4 31.2 97 -0.9 30.3
16:05 1010 29.83 839 24.78 -0.5 31 97 -1 30.2
16:10 1010 29.83 839 24.78 -0.5 31.1 96 -1 30.2
16:15 1010 29.83 839 24.78 -0.5 31 96 -1.1 30.1
16:20 1010 29.83 839 24.78 -0.7 30.8 96 -1.2 29.8
16:25 1010 29.83 839 24.78 -0.8 30.5 96 -1.5 29.4
16:30 1010 29.83 839 24.78 -1 30.2 96 -1.6 29.2
16:35 1010 29.83 839 24.78 -1 30.3 95 -1.6 29.1
16:40 1010 29.83 839 24.78 -1.1 30.1 95 -1.8 28.8
16:45 1010 29.83 839 24.78 -1.3 29.6 95 -2 28.4
16:50 1010 29.83 840 24.81 -1.5 29.3 95 -2.1 28.1
16:55 1010 29.83 840 24.81 -1.6 29.1 95 -2.3 27.8
17:00 1011 29.85 840 24.81 -1.8 28.8 95 -2.4 27.6
17:05 1010 29.83 840 24.81 -1.9 28.5 95 -2.6 27.3
17:10 1011 29.85 840 24.81 -2.1 28.2 96 -2.7 27.1
17:15 1011 29.85 840 24.81 -2.2 28.1 96 -2.8 27
17:20 1011 29.85 840 24.81 -2.2 28 96 -2.7 27.1
17:25 1011 29.85 840 24.81 -2.1 28.2 96 -2.6 27.3
17:30 1011 29.85 840 24.81 -2.2 28 95 -2.9 26.8
17:35 1011 29.85 840 24.81 -2.3 27.8 96 -2.9 26.7
17:40 1011 29.85 841 24.83 -2.4 27.7 96 -3 26.6
17:45 1011 29.85 840 24.81 -2.4 27.7 96 -3 26.6
17:50 1011 29.85 840 24.81 -2.3 27.9 95 -3 26.5
17:55 1011 29.85 841 24.83 -2.6 27.3 96 -3.2 26.2
18:00 1011 29.85 841 24.83 -2.7 27.2 96 -3.2 26.3
18:05 1011 29.85 841 24.83 -2.7 27.2 96 -3.2 26.2
18:10 1011 29.85 841 24.83 -2.8 27 97 -3.3 26.1
18:15 1011 29.85 841 24.83 -2.7 27.1 97 -3.2 26.2
18:20 1011 29.85 841 24.83 -2.7 27.1 96 -3.2 26.3
18:25 1012 29.88 841 24.83 -2.5 27.4 97 -3 26.6
18:30 1012 29.88 841 24.83 -2.4 27.8 97 -2.8 27
18:35 1012 29.88 841 24.83 -2.2 28.1 96 -2.8 27
18:40 1012 29.88 841 24.83 -2.3 27.9 96 -2.9 26.8
18:45 1012 29.88 841 24.83 -2.3 27.9 95 -2.9 26.7
18:50 1012 29.88 841 24.83 -2.4 27.7 95 -3.1 26.5
18:55 1012 29.88 841 24.83 -2.6 27.3 95 -3.3 26.1
19:00 1012 29.88 841 24.83 -2.6 27.3 96 -3.2 26.2
19:05 1012 29.88 841 24.83 -2.7 27.2 95 -3.3 26
19:10 1012 29.88 841 24.83 -2.7 27.1 95 -3.4 26
19:15 1012 29.88 841 24.83 -2.8 27 95 -3.5 25.8
19:20 1012 29.88 842 24.86 -2.8 27 96 -3.4 26
19:25 1012 29.88 841 24.83 -2.7 27.2 95 -3.3 26
19:30 1012 29.88 841 24.83 -2.7 27.1 95 -3.3 26
19:35 1012 29.88 841 24.83 -2.7 27.2 95 -3.4 25.9
19:40 1012 29.88 841 24.83 -2.7 27.2 95 -3.4 25.9
19:45 1012 29.88 841 24.83 -2.7 27.1 95 -3.4 25.8
19:50 1012 29.88 842 24.86 -2.7 27.2 95 -3.4 25.8
19:55 1012 29.88 842 24.86 -2.8 27 95 -3.5 25.7
20:00 1013 29.91 842 24.86 -3 26.7 95 -3.7 25.3
20:05 1013 29.91 842 24.86 -3.2 26.3 95 -3.9 25
20:10 1012 29.88 842 24.86 -3.3 26 94 -4.1 24.6
20:15 1012 29.88 842 24.86 -3.4 26 95 -4.1 24.6
20:20 1012 29.88 842 24.86 -3.4 25.9 94 -4.2 24.4
20:25 1012 29.88 842 24.86 -3.5 25.8 94 -4.3 24.3
20:30 1012 29.88 842 24.86 -3.5 25.8 94 -4.2 24.4
20:35 1013 29.91 842 24.86 -3.5 25.7 94 -4.3 24.2
20:40 1013 29.91 842 24.86 -3.6 25.5 94 -4.4 24
20:45 1013 29.91 842 24.86 -3.7 25.4 95 -4.3 24.2
20:50 1013 29.91 842 24.86 -3.5 25.7 95 -4.3 24.3
20:55 1013 29.91 842 24.86 -3.6 25.6 95 -4.3 24.3
21:00 1013 29.91 842 24.86 -3.6 25.5 95 -4.3 24.3
21:05 1013 29.91 842 24.86 -3.7 25.4 95 -4.3 24.3
21:10 1013 29.91 842 24.86 -3.6 25.5 95 -4.3 24.2
21:15 1013 29.91 842 24.86 -3.7 25.3 95 -4.4 24.1
21:20 1013 29.91 842 24.86 -3.7 25.4 96 -4.3 24.3
21:25 1013 29.91 842 24.86 -3.6 25.5 96 -4.2 24.5
21:30 1013 29.91 842 24.86 -3.7 25.4 95 -4.3 24.2
21:35 1013 29.91 843 24.89 -3.7 25.3 95 -4.4 24.2
21:40 1013 29.91 843 24.89 -3.7 25.3 96 -4.3 24.2
21:45 1013 29.91 842 24.86 -3.7 25.4 96 -4.3 24.3
21:50 1013 29.91 842 24.86 -3.6 25.5 96 -4.2 24.4
21:55 1013 29.91 842 24.86 -3.6 25.5 95 -4.2 24.4
22:00 1013 29.91 843 24.89 -3.6 25.5 95 -4.2 24.4
22:05 1014 29.94 843 24.89 -3.6 25.5 96 -4.2 24.4
22:10 1014 29.94 843 24.89 -3.6 25.5 96 -4.2 24.4
22:15 1014 29.94 843 24.89 -3.6 25.5 95 -4.3 24.3
22:20 1014 29.94 843 24.89 -3.6 25.5 95 -4.3 24.2
22:25 1014 29.94 843 24.89 -3.7 25.4 96 -4.3 24.3
22:30 1013 29.91 843 24.89 -3.6 25.5 95 -4.3 24.3
22:35 1013 29.91 843 24.89 -3.8 25.2 95 -4.5 24
22:40 1013 29.91 843 24.89 -3.8 25.1 95 -4.5 23.8
22:45 1013 29.91 843 24.89 -3.9 25 95 -4.6 23.7
22:50 1013 29.91 843 24.89 -3.9 24.9 95 -4.6 23.7
22:55 1013 29.91 843 24.89 -4 24.8 95 -4.7 23.6
23:00 1013 29.91 843 24.89 -4 24.8 96 -4.6 23.6
23:05 1013 29.91 843 24.89 -4 24.8 95 -4.7 23.5
23:10 1013 29.91 843 24.89 -4.1 24.6 95 -4.8 23.3
23:15 1013 29.91 843 24.89 -4.1 24.6 95 -4.8 23.3
23:20 1013 29.91 843 24.89 -4.1 24.6 95 -4.8 23.3
23:25 1013 29.91 842 24.86 -4.1 24.6 95 -4.8 23.3
23:30 1013 29.91 843 24.89 -4.2 24.5 95 -4.9 23.2
23:35 1013 29.91 843 24.89 -4.2 24.5 95 -4.9 23.2
23:40 1013 29.91 843 24.89 -4.2 24.5 95 -4.9 23.3
23:45 1013 29.91 842 24.86 -4.2 24.5 94 -4.9 23.1
23:50 1013 29.91 842 24.86 -4.2 24.4 94 -5.1 22.8
23:55 1013 29.91 843 24.89 -4.3 24.3 95 -5.1 22.9
24:00 1014 29.94 843 24.89 -4.3 24.3 94 -5.2 22.7